KLGA/LGA METAR and TAF weather

Enter ICAO airport designator
Station Type Date Time Source
KLGA METAR 2020/11/25 22:51 UTC NOAA

KLGA 252251Z 17005KT 10SM CLR 12/04 A3024 RMK AO2 SLP241 T01170039


Station Type Date Time Source
KLGA Decoded METAR 2020/11/25 22:51 UTC NOAA

NEW YORK LA GUARDIA AIRPORT , NY, United States (KLGA) 40-47N 73-53W 11M
Nov 25, 2020 - 05:51 PM EST / 2020.11.25 2251 UTC
Wind: from the S (170 degrees) at 6 MPH (5 KT):0
Visibility: 10 mile(s):0
Sky conditions: clear
Temperature: 53.1 F (11.7 C)
Dew Point: 39.0 F (3.9 C)
Relative Humidity: 58%
Pressure (altimeter): 30.24 in. Hg (1024 hPa)
ob: KLGA 252251Z 17005KT 10SM CLR 12/04 A3024 RMK AO2 SLP241 T01170039
cycle: 23

Station Type Date Time Source
KLGA TAF 2020/11/25 21:58 UTC NOAA

TAF
AMD KLGA 252057Z 2521/2624 21010KT P6SM FEW035 BKN120
FM252300 22008KT P6SM FEW025 BKN200
FM260300 17007KT P6SM FEW020 BKN050
FM260900 18008KT 3SM -RA BR SCT008 OVC015
FM261200 19010KT 3SM RA BR BKN008 OVC012
FM261800 19008KT P6SM VCSH BKN015 BKN025
FM262100 24006KT P6SM VCSH SCT015 BKN025

Example: see airport list